Time;durP1;ratioP1;P1;durP2;ratioP2;P2;SDS_P1;SDS_P2;PMS_P1;PMS_P2;Temp;Humidity;BMP_temperature;BMP_pressure;BME280_temperature;BME280_humidity;BME280_pressure;Samples;Min_cycle;Max_cycle;Signal;HPM_P1;HPM_P2
2022/09/30 00:00:32;;;;;;;10.10;8.58;;;;;;;16.01;85.39;99074.88;1743289;82;21020;-75
2022/09/30 00:03:00;;;;;;;12.37;9.03;;;;;;;16.08;85.46;99070.78;1740513;80;21032;-77
2022/09/30 00:05:26;;;;;;;10.30;9.20;;;;;;;16.10;85.47;99066.83;1746430;81;21010;-78
2022/09/30 00:07:53;;;;;;;11.05;8.78;;;;;;;16.06;85.62;99067.50;1749161;82;21102;-79
2022/09/30 00:10:20;;;;;;;8.53;7.25;;;;;;;16.02;85.93;99066.31;1747784;80;21224;-77
2022/09/30 00:12:48;;;;;;;11.12;8.20;;;;;;;16.03;86.12;99068.77;1735774;81;21025;-79
2022/09/30 00:15:16;;;;;;;8.70;7.80;;;;;;;16.09;86.16;99068.41;1720951;82;21041;-77
2022/09/30 00:17:43;;;;;;;9.90;8.75;;;;;;;16.05;86.31;99065.84;1748290;80;21036;-77
2022/09/30 00:20:10;;;;;;;8.60;7.40;;;;;;;16.01;86.64;99072.69;1750908;81;21014;-78
2022/09/30 00:22:38;;;;;;;8.10;6.92;;;;;;;16.00;86.63;99078.58;1749513;80;21521;-74
2022/09/30 00:25:07;;;;;;;8.73;7.58;;;;;;;16.03;86.74;99076.81;1752445;80;21092;-75
2022/09/30 00:27:33;;;;;;;9.70;8.45;;;;;;;16.02;86.97;99080.52;1750929;80;21120;-75
2022/09/30 00:29:59;;;;;;;10.10;7.10;;;;;;;15.97;87.17;99073.64;1746332;81;21034;-76
2022/09/30 00:32:27;;;;;;;8.88;6.65;;;;;;;15.95;87.23;99078.93;1745794;80;21078;-76
2022/09/30 00:34:53;;;;;;;9.28;7.97;;;;;;;16.02;87.10;99079.70;1721670;81;22496;-76
2022/09/30 00:37:20;;;;;;;9.78;8.33;;;;;;;16.02;87.04;99080.52;1743428;81;21021;-78
2022/09/30 00:39:46;;;;;;;8.88;7.37;;;;;;;15.98;87.19;99087.88;1746591;80;21490;-76
2022/09/30 00:42:14;;;;;;;8.43;6.45;;;;;;;15.95;87.39;99089.65;1745059;81;21054;-75
2022/09/30 00:45:03;;;;;;;10.32;7.72;;;;;;;15.99;87.52;99094.34;1745878;80;21557;-77
2022/09/30 00:47:52;;;;;;;9.58;8.18;;;;;;;16.05;87.35;99098.00;1750008;80;21670;-76
2022/09/30 00:50:38;;;;;;;9.38;8.48;;;;;;;16.00;87.39;99105.37;1745665;80;21120;-75
2022/09/30 00:53:13;;;;;;;8.55;7.42;;;;;;;15.97;87.58;99100.43;1692691;83;21014;-75
2022/09/30 00:55:59;;;;;;;8.93;7.35;;;;;;;16.02;87.73;99103.81;1740337;80;21051;-78
2022/09/30 00:58:31;;;;;;;9.88;8.05;;;;;;;16.04;87.61;99105.23;1745676;80;21021;-78
2022/09/30 01:01:00;;;;;;;10.63;8.23;;;;;;;15.99;87.85;99099.69;1751511;82;21616;-77
2022/09/30 01:03:33;;;;;;;9.08;7.87;;;;;;;15.94;88.12;99100.89;1720664;82;21010;-76
2022/09/30 01:05:59;;;;;;;8.60;7.57;;;;;;;15.98;88.04;99103.42;1755382;80;21069;-74
2022/09/30 01:08:26;;;;;;;8.60;7.80;;;;;;;16.04;88.12;99097.72;1754028;80;21018;-76
2022/09/30 01:10:52;;;;;;;10.65;7.95;;;;;;;16.01;88.28;99098.98;1753440;81;21074;-76
2022/09/30 01:13:19;;;;;;;8.53;7.05;;;;;;;15.95;88.69;99097.16;1752194;81;21792;-76
2022/09/30 01:16:18;;;;;;;8.93;6.62;;;;;;;15.98;89.17;99102.61;1744710;81;20996;-77
2022/09/30 01:18:53;;;;;;;9.13;7.60;;;;;;;16.02;89.13;99107.30;1744964;80;21065;-76
2022/09/30 01:21:34;;;;;;;7.92;6.70;;;;;;;15.97;89.46;99103.11;1727077;83;21490;-77
2022/09/30 01:24:18;;;;;;;7.90;6.45;;;;;;;15.90;89.76;99101.84;1727688;80;21341;-77
2022/09/30 01:27:12;;;;;;;9.95;6.62;;;;;;;15.94;90.14;99108.92;1689403;81;21162;-77
2022/09/30 01:31:59;;;;;;;9.20;7.60;;;;;;;15.95;90.56;99105.72;1875344;75;28031;-77
2022/09/30 01:34:48;;;;;;;7.80;6.22;;;;;;;15.84;90.90;99101.87;1839345;77;20946;-76
2022/09/30 01:37:32;;;;;;;9.13;6.92;;;;;;;15.84;91.14;99112.59;1838988;77;21878;-76
2022/09/30 01:40:29;;;;;;;12.50;7.12;;;;;;;15.86;91.44;99113.22;1815674;77;20941;-78
2022/09/30 01:43:08;;;;;;;7.78;6.97;;;;;;;15.76;91.98;99111.52;1835209;77;21056;-76
2022/09/30 01:45:55;;;;;;;8.70;7.10;;;;;;;15.70;92.67;99118.04;1822930;77;20984;-77
2022/09/30 01:48:59;;;;;;;7.28;6.53;;;;;;;15.70;92.97;99119.88;1835854;77;21044;-78
2022/09/30 01:51:59;;;;;;;7.58;6.20;;;;;;;15.60;93.47;99122.22;1828901;77;21061;-77
2022/09/30 01:54:51;;;;;;;7.00;6.30;;;;;;;15.56;93.97;99124.50;1841127;77;20973;-79
2022/09/30 01:57:34;;;;;;;9.48;7.67;;;;;;;15.56;94.10;99123.16;1819812;77;20982;-78
2022/09/30 02:00:08;;;;;;;;;;;;;;;15.49;94.54;99126.39;1836900;77;22282;-76
2022/09/30 02:02:49;;;;;;;9.80;6.85;;;;;;;15.47;94.69;99116.41;1827463;77;20185;-76
2022/09/30 02:05:50;;;;;;;7.90;7.08;;;;;;;15.47;94.92;99115.08;1826479;78;21129;-80
2022/09/30 02:08:33;;;;;;;8.50;6.65;;;;;;;15.39;95.45;99120.16;1772775;77;21021;-77
2022/09/30 02:11:07;;;;;;;7.58;6.83;;;;;;;15.38;95.84;99112.38;1793900;77;21041;-75
2022/09/30 02:13:54;;;;;;;9.60;7.92;;;;;;;15.39;95.83;99111.32;1839897;77;21017;-77
2022/09/30 02:16:26;;;;;;;9.28;8.38;;;;;;;15.37;96.00;99118.22;1831204;76;21020;-74
2022/09/30 02:18:57;;;;;;;11.53;7.72;;;;;;;15.29;96.40;99115.80;1833888;77;22027;-77
2022/09/30 02:21:28;;;;;;;11.28;8.10;;;;;;;15.34;96.32;99117.33;1797893;77;20998;-75
2022/09/30 02:24:01;;;;;;;12.50;7.65;;;;;;;15.39;96.31;99127.38;1825082;78;21004;-75
2022/09/30 02:26:29;;;;;;;9.33;8.33;;;;;;;15.34;96.56;99126.70;1825714;77;21015;-78
2022/09/30 02:29:05;;;;;;;10.20;7.22;;;;;;;15.29;96.87;99119.30;1810821;77;21033;-75
2022/09/30 02:31:36;;;;;;;12.37;8.95;;;;;;;15.35;96.86;99122.97;1826229;78;21205;-73
2022/09/30 02:34:25;;;;;;;11.63;8.58;;;;;;;15.34;96.81;99116.80;1805785;77;21497;-77
2022/09/30 02:37:15;;;;;;;10.28;8.03;;;;;;;15.28;96.98;99126.22;1819603;77;21060;-77
2022/09/30 02:39:56;;;;;;;9.80;8.65;;;;;;;15.29;96.93;99132.67;1828095;77;21041;-77
2022/09/30 02:42:27;;;;;;;13.03;8.55;;;;;;;15.28;97.29;99129.70;1829775;77;21043;-79
2022/09/30 02:45:07;;;;;;;11.48;7.92;;;;;;;15.22;97.69;99124.37;1812453;77;21115;-74
2022/09/30 02:48:05;;;;;;;10.35;8.13;;;;;;;15.25;97.65;99126.11;1825718;77;21038;-77
2022/09/30 02:50:47;;;;;;;11.12;8.85;;;;;;;15.28;97.51;99123.55;1796595;77;21013;-78
2022/09/30 02:53:20;;;;;;;9.98;8.70;;;;;;;15.24;97.88;99119.63;1814278;77;21615;-78
2022/09/30 02:56:15;;;;;;;8.83;7.97;;;;;;;15.22;98.17;99117.69;1814123;77;21049;-77
2022/09/30 02:58:42;;;;;;;14.47;10.20;;;;;;;15.28;98.18;99123.55;1816546;77;21643;-78
2022/09/30 03:01:12;;;;;;;9.88;8.95;;;;;;;15.24;98.09;99119.63;1815974;77;21037;-76
2022/09/30 03:03:55;;;;;;;9.05;7.72;;;;;;;15.17;98.44;99120.20;1827218;77;20982;-75
2022/09/30 03:06:25;;;;;;;10.28;9.03;;;;;;;15.21;98.34;99124.09;1829773;77;21036;-75
2022/09/30 03:08:52;;;;;;;13.65;9.48;;;;;;;15.25;98.20;99124.77;1826968;76;21535;-77
2022/09/30 03:11:25;;;;;;;9.73;8.63;;;;;;;15.22;98.33;99131.06;1818336;77;21016;-76
2022/09/30 03:14:18;;;;;;;11.43;8.80;;;;;;;15.15;98.50;99133.78;1809627;77;21001;-75
2022/09/30 03:17:39;;;;;;;10.60;8.65;;;;;;;15.19;98.48;99136.33;1845053;77;21059;-76
2022/09/30 03:20:27;;;;;;;10.50;9.08;;;;;;;15.21;98.31;99128.91;1831495;77;21010;-74
2022/09/30 03:23:08;;;;;;;11.88;8.20;;;;;;;15.11;98.74;99141.41;1837490;76;20989;-75
2022/09/30 03:25:46;;;;;;;10.50;9.40;;;;;;;15.12;99.24;99140.88;1829478;77;22770;-76
2022/09/30 03:28:30;;;;;;;12.13;10.10;;;;;;;15.16;98.97;99147.45;1834808;77;21019;-77
2022/09/30 03:31:15;;;;;;;11.22;9.70;;;;;;;15.12;99.19;99148.91;1836419;76;21010;-74
2022/09/30 03:33:56;;;;;;;11.45;7.70;;;;;;;15.09;99.56;99140.80;1830372;76;21552;-75
2022/09/30 03:36:45;;;;;;;10.63;9.50;;;;;;;15.15;99.54;99148.50;1835595;76;21596;-76
2022/09/30 03:39:25;;;;;;;11.28;10.18;;;;;;;15.18;99.56;99156.08;1839358;76;21829;-76
2022/09/30 03:42:19;;;;;;;10.25;9.23;;;;;;;15.12;99.89;99153.77;1839063;77;21056;-78
2022/09/30 03:44:49;;;;;;;;;;;;;;;15.15;99.93;99163.21;1767718;77;21045;-77
2022/09/30 03:47:15;;;;;;;15.60;11.80;;;;;;;15.24;100.00;99161.94;1815488;78;20171;-76
2022/09/30 03:49:46;;;;;;;14.55;11.45;;;;;;;15.22;100.00;99170.70;1831218;76;21485;-79
2022/09/30 03:52:12;;;;;;;13.83;10.58;;;;;;;15.20;100.00;99170.59;1841568;76;21072;-79
2022/09/30 03:54:51;;;;;;;13.83;11.57;;;;;;;15.22;100.00;99176.05;1823763;76;21021;-79
2022/09/30 03:57:17;;;;;;;14.95;11.50;;;;;;;15.23;100.00;99171.52;1800745;76;21118;-80
2022/09/30 03:59:45;;;;;;;12.35;9.90;;;;;;;15.20;100.00;99167.91;1834522;76;21005;-77
2022/09/30 04:02:12;;;;;;;12.78;11.43;;;;;;;15.25;100.00;99170.78;1853958;76;21008;-79
2022/09/30 04:04:40;;;;;;;17.90;12.90;;;;;;;15.27;100.00;99176.74;1837698;76;21848;-78
2022/09/30 04:07:10;;;;;;;15.03;11.25;;;;;;;15.20;100.00;99170.59;1826115;78;21523;-79
2022/09/30 04:09:37;;;;;;;13.62;10.60;;;;;;;15.21;100.00;99184.28;1831777;77;21018;-78
2022/09/30 04:12:06;;;;;;;18.52;11.88;;;;;;;15.27;100.00;99184.77;1851440;76;21001;-77
2022/09/30 04:14:33;;;;;;;13.25;10.68;;;;;;;15.24;100.00;99191.88;1832832;76;21052;-79
2022/09/30 04:16:59;;;;;;;12.78;10.58;;;;;;;15.14;100.00;99198.52;1823259;76;21583;-78
2022/09/30 04:19:26;;;;;;;13.95;11.40;;;;;;;15.18;100.00;99207.44;1827056;76;21096;-75
2022/09/30 04:21:53;;;;;;;14.18;12.40;;;;;;;15.18;100.00;99207.44;1823242;77;21071;-77
2022/09/30 04:24:21;;;;;;;13.62;9.93;;;;;;;15.10;100.00;99203.98;1806449;77;21028;-75
2022/09/30 04:26:48;;;;;;;13.98;10.48;;;;;;;15.10;100.00;99194.63;1825405;76;21475;-78
2022/09/30 04:29:14;;;;;;;14.98;11.33;;;;;;;15.12;100.00;99207.27;1806135;76;22066;-77
2022/09/30 04:31:40;;;;;;;12.43;10.65;;;;;;;15.10;100.00;99216.02;1839105;76;21047;-77
2022/09/30 04:34:09;;;;;;;12.75;11.45;;;;;;;15.07;100.00;99218.29;1826366;78;20988;-78
2022/09/30 04:36:37;;;;;;;16.07;13.13;;;;;;;15.09;100.00;99228.27;1831772;77;21011;-76
2022/09/30 04:39:04;;;;;;;16.57;11.28;;;;;;;15.03;100.00;99221.90;1815498;78;21041;-78
2022/09/30 04:41:32;;;;;;;12.58;11.18;;;;;;;15.01;100.00;99223.12;1828505;77;21620;-76
2022/09/30 04:44:04;;;;;;;13.13;11.15;;;;;;;15.09;100.00;99214.36;1823783;77;20990;-76
2022/09/30 04:46:28;;;;;;;13.65;12.10;;;;;;;15.10;100.00;99212.50;1834027;76;21006;-78
2022/09/30 04:48:54;;;;;;;15.13;12.50;;;;;;;15.05;100.00;99210.47;1824639;77;20990;-78
2022/09/30 04:51:21;;;;;;;16.77;12.37;;;;;;;15.02;100.00;99208.20;1820010;77;21039;-75
2022/09/30 04:53:47;;;;;;;18.30;12.47;;;;;;;15.13;100.00;99208.08;1813446;78;21128;-76
2022/09/30 04:56:16;;;;;;;20.12;13.83;;;;;;;15.25;100.00;99220.28;1825735;77;21622;-74
2022/09/30 04:58:44;;;;;;;14.83;11.90;;;;;;;15.25;100.00;99226.98;1817766;77;20986;-75
2022/09/30 05:01:13;;;;;;;11.93;10.70;;;;;;;15.26;100.00;99232.61;1809098;77;21052;-76
2022/09/30 05:03:40;;;;;;;13.55;11.28;;;;;;;15.37;100.00;99235.16;1832089;77;21293;-76
2022/09/30 05:06:07;;;;;;;12.45;11.15;;;;;;;15.39;100.00;99233.09;1821128;78;21240;-74
2022/09/30 05:08:34;;;;;;;13.55;11.40;;;;;;;15.32;100.00;99241.16;1829380;77;21533;-74
2022/09/30 05:11:04;;;;;;;13.53;11.80;;;;;;;15.33;100.00;99234.77;1831624;77;21437;-77
2022/09/30 05:13:34;;;;;;;16.20;13.72;;;;;;;15.33;100.00;99224.05;1813882;76;21056;-73
2022/09/30 05:16:01;;;;;;;20.70;13.95;;;;;;;15.30;100.00;99233.34;1811274;77;21036;-76
2022/09/30 05:18:29;;;;;;;13.78;12.28;;;;;;;15.25;100.00;99241.69;1838107;77;21079;-76
2022/09/30 05:20:56;;;;;;;20.00;13.75;;;;;;;15.33;100.00;99250.81;1821056;77;21045;-74
2022/09/30 05:23:24;;;;;;;17.20;13.83;;;;;;;15.46;100.00;99244.61;1829867;77;21009;-77
2022/09/30 05:25:50;;;;;;;19.42;14.95;;;;;;;15.52;100.00;99246.43;1795140;77;21056;-76
2022/09/30 05:28:17;;;;;;;20.02;13.22;;;;;;;15.52;100.00;99250.45;1831315;77;21634;-77
2022/09/30 05:30:45;;;;;;;17.52;13.83;;;;;;;15.61;100.00;99249.70;1834080;76;20942;-76
2022/09/30 05:33:13;;;;;;;17.50;14.68;;;;;;;15.71;99.50;99252.73;1828886;77;21509;-78
2022/09/30 05:35:40;;;;;;;20.43;14.83;;;;;;;15.70;99.19;99250.58;1838078;77;21031;-78
2022/09/30 05:38:08;;;;;;;22.55;14.70;;;;;;;15.67;99.11;99253.67;1828663;77;21065;-78
2022/09/30 05:40:38;;;;;;;16.80;14.40;;;;;;;15.72;98.37;99266.41;1827622;77;21029;-74
2022/09/30 05:43:05;;;;;;;21.12;15.98;;;;;;;15.70;98.36;99274.69;1850295;76;21745;-77
2022/09/30 05:45:32;;;;;;;18.05;13.35;;;;;;;15.64;98.52;99269.34;1838108;77;21032;-77
2022/09/30 05:48:01;;;;;;;15.38;12.10;;;;;;;15.65;98.52;99277.17;1826263;77;21522;-77
2022/09/30 05:50:29;;;;;;;20.37;15.78;;;;;;;15.68;98.37;99270.06;1825946;77;21040;-75
2022/09/30 05:52:56;;;;;;;17.48;14.15;;;;;;;15.63;98.52;99278.42;1829945;77;21006;-77
2022/09/30 05:55:22;;;;;;;15.23;13.55;;;;;;;15.54;98.81;99283.99;1841958;77;21801;-77
2022/09/30 05:57:50;;;;;;;16.65;14.03;;;;;;;15.58;99.06;99287.08;1852963;77;21545;-77
2022/09/30 06:00:17;;;;;;;18.52;15.53;;;;;;;15.62;98.72;99291.49;1806659;77;21314;-77
2022/09/30 06:02:43;;;;;;;19.05;16.02;;;;;;;15.62;98.84;99290.16;1808927;77;21026;-79
2022/09/30 06:05:10;;;;;;;19.35;16.60;;;;;;;15.59;99.34;99298.59;1807796;77;21002;-77
2022/09/30 06:07:39;;;;;;;22.90;17.55;;;;;;;15.63;99.32;99303.86;1815987;77;21546;-81
2022/09/30 06:10:09;;;;;;;26.95;19.75;;;;;;;15.70;99.14;99296.60;1815817;78;21057;-81
2022/09/30 06:12:36;;;;;;;30.10;20.97;;;;;;;15.66;99.23;99295.38;1826996;77;21041;-81
2022/09/30 06:15:04;;;;;;;31.62;21.75;;;;;;;15.66;99.51;99302.08;1825604;77;21001;-79
2022/09/30 06:17:30;;;;;;;28.02;22.05;;;;;;;15.73;99.16;99305.59;1825609;77;20981;-79
2022/09/30 06:19:57;;;;;;;28.85;20.72;;;;;;;15.78;98.91;99319.67;1828309;77;21333;-79
2022/09/30 06:22:24;;;;;;;30.20;19.20;;;;;;;15.74;98.93;99309.89;1826584;77;21514;-79
2022/09/30 06:24:50;;;;;;;28.95;19.05;;;;;;;15.76;98.93;99313.22;1824574;77;21060;-76
2022/09/30 06:27:18;;;;;;;27.40;19.52;;;;;;;15.84;98.80;99304.09;1830800;78;20997;-79
2022/09/30 06:29:44;;;;;;;27.95;20.52;;;;;;;15.89;98.84;99298.40;1830098;78;21036;-77
2022/09/30 06:32:12;;;;;;;21.07;17.00;;;;;;;15.93;98.85;99296.12;1816780;76;21541;-80
2022/09/30 06:34:39;;;;;;;21.23;17.50;;;;;;;16.05;98.49;99300.28;1820189;76;21071;-79
2022/09/30 06:37:06;;;;;;;20.77;17.17;;;;;;;16.22;97.98;99296.05;1816102;76;21489;-79
2022/09/30 06:39:32;;;;;;;18.10;16.32;;;;;;;16.34;97.22;99298.05;1824346;76;20997;-77
2022/09/30 06:41:58;;;;;;;23.05;15.78;;;;;;;16.38;96.23;99309.48;1840886;76;20998;-80
2022/09/30 06:44:25;;;;;;;21.55;17.30;;;;;;;16.46;95.38;99310.55;1844300;76;21118;-79
2022/09/30 06:47:04;;;;;;;19.10;17.05;;;;;;;16.52;94.82;99314.23;1817950;76;21107;-79
2022/09/30 06:49:28;;;;;;;18.55;16.07;;;;;;;16.50;94.34;99318.98;1800630;77;21101;-78
2022/09/30 06:51:55;;;;;;;18.00;16.00;;;;;;;16.50;93.97;99314.97;1827913;76;21496;-78
2022/09/30 06:54:22;;;;;;;20.40;18.40;;;;;;;16.51;94.01;99315.25;1832376;76;21074;-79
2022/09/30 06:56:48;;;;;;;22.80;18.62;;;;;;;16.49;94.19;99316.80;1832791;76;21571;-80
2022/09/30 06:59:15;;;;;;;19.50;16.70;;;;;;;16.49;94.46;99320.01;1831583;77;21013;-79
2022/09/30 07:01:43;;;;;;;20.52;17.82;;;;;;;16.60;94.41;99324.68;1851871;76;21001;-80
2022/09/30 07:04:10;;;;;;;20.23;17.30;;;;;;;16.73;93.70;99325.11;1830081;77;21000;-82
2022/09/30 07:06:38;;;;;;;21.12;17.92;;;;;;;16.82;93.38;99328.36;1831985;76;21055;-81
2022/09/30 07:09:06;;;;;;;19.42;17.27;;;;;;;16.85;92.88;99330.61;1830059;76;21806;-81
2022/09/30 07:11:36;;;;;;;20.37;18.00;;;;;;;16.95;92.36;99334.95;1844757;76;21013;-82
2022/09/30 07:14:04;;;;;;;21.55;19.23;;;;;;;17.07;91.62;99329.19;1829885;76;21196;-78
2022/09/30 07:16:30;;;;;;;24.77;19.48;;;;;;;17.13;91.49;99330.14;1842591;76;21037;-79
2022/09/30 07:19:02;;;;;;;27.27;18.12;;;;;;;17.18;90.85;99335.68;1821262;76;21029;-79
2022/09/30 07:21:31;;;;;;;21.90;18.40;;;;;;;17.27;90.70;99333.55;1826209;76;21106;-80
2022/09/30 07:23:58;;;;;;;21.23;19.12;;;;;;;17.40;90.11;99341.97;1815461;77;21050;-80
2022/09/30 07:26:25;;;;;;;21.25;18.27;;;;;;;17.44;89.51;99351.22;1828093;76;22052;-80
2022/09/30 07:28:52;;;;;;;22.50;18.12;;;;;;;17.40;89.23;99352.70;1828814;78;21674;-80
2022/09/30 07:31:22;;;;;;;20.88;18.65;;;;;;;17.41;89.22;99358.39;1827177;76;21300;-78
2022/09/30 07:33:51;;;;;;;22.07;19.80;;;;;;;17.43;89.01;99360.33;1802250;77;21473;-79
2022/09/30 07:36:23;;;;;;;22.85;19.02;;;;;;;17.33;88.95;99358.69;1811677;77;21061;-79
2022/09/30 07:38:50;;;;;;;23.15;19.65;;;;;;;17.21;89.27;99355.38;1805934;77;21093;-78
2022/09/30 07:41:23;;;;;;;23.62;19.40;;;;;;;17.24;89.34;99356.80;1815140;77;21491;-78
2022/09/30 07:43:50;;;;;;;31.82;21.10;;;;;;;17.28;89.49;99354.78;1815524;77;21017;-79
2022/09/30 07:46:23;;;;;;;28.92;20.88;;;;;;;17.32;89.37;99357.84;1823568;77;21129;-79
2022/09/30 07:48:51;;;;;;;25.08;18.57;;;;;;;17.34;89.42;99354.41;1810268;77;21112;-79
2022/09/30 07:51:29;;;;;;;26.65;21.82;;;;;;;17.51;89.12;99360.03;1853917;77;21021;-78
2022/09/30 07:54:03;;;;;;;31.97;22.58;;;;;;;17.63;88.77;99368.98;1804929;77;21080;-78
2022/09/30 07:56:29;;;;;;;;;;;;;;;17.72;88.71;99367.36;1814973;77;22156;-78
2022/09/30 07:58:59;;;;;;;40.78;26.75;;;;;;;17.85;88.46;99373.44;1820099;77;21176;-78
2022/09/30 08:01:30;;;;;;;42.15;26.73;;;;;;;17.96;87.68;99377.75;1812651;77;21123;-77
2022/09/30 08:04:00;;;;;;;38.92;28.60;;;;;;;18.17;87.24;99375.11;1836375;77;20997;-76
2022/09/30 08:06:29;;;;;;;40.60;30.43;;;;;;;18.39;86.95;99367.39;1808893;76;21385;-76
2022/09/30 08:08:57;;;;;;;44.53;30.57;;;;;;;18.61;86.07;99374.41;1800621;77;21025;-78
2022/09/30 08:11:24;;;;;;;44.25;32.53;;;;;;;18.80;85.11;99377.34;1817239;77;21416;-78
2022/09/30 08:13:55;;;;;;;36.15;28.30;;;;;;;18.96;84.16;99382.58;1809406;77;21065;-75
2022/09/30 08:16:25;;;;;;;42.05;31.02;;;;;;;19.14;82.73;99386.23;1819321;77;21017;-78
2022/09/30 08:19:00;;;;;;;43.28;33.67;;;;;;;19.20;81.63;99387.48;1820875;77;21009;-77
2022/09/30 08:21:28;;;;;;;44.58;32.67;;;;;;;19.12;81.73;99392.38;1818187;77;21639;-77
2022/09/30 08:23:54;;;;;;;46.70;32.80;;;;;;;19.03;81.78;99390.03;1830963;77;21088;-77
2022/09/30 08:26:21;;;;;;;36.88;27.10;;;;;;;19.00;82.00;99391.83;1828219;77;21076;-80
2022/09/30 08:28:48;;;;;;;35.03;28.45;;;;;;;19.13;81.81;99403.45;1815907;77;21091;-80
2022/09/30 08:31:18;;;;;;;36.65;28.73;;;;;;;19.18;81.54;99404.90;1811578;77;21069;-79
2022/09/30 08:33:46;;;;;;;38.30;29.95;;;;;;;19.12;81.14;99400.45;1827672;75;21080;-81
2022/09/30 08:36:19;;;;;;;35.55;28.60;;;;;;;19.07;81.56;99407.08;1823783;77;21116;-81
2022/09/30 08:38:45;;;;;;;28.90;24.37;;;;;;;19.09;81.57;99403.62;1819519;77;20986;-80
2022/09/30 08:41:48;;;;;;;24.77;22.37;;;;;;;19.19;81.25;99402.52;1815664;77;21068;-78
2022/09/30 08:44:43;;;;;;;24.63;22.00;;;;;;;19.31;80.97;99401.98;1820191;77;21025;-78
2022/09/30 08:47:19;;;;;;;26.30;23.60;;;;;;;19.58;81.19;99402.87;1836467;77;21021;-77
2022/09/30 08:50:25;;;;;;;26.85;23.90;;;;;;;19.99;80.40;99407.81;1798267;77;21208;-79
2022/09/30 08:52:56;;;;;;;26.00;23.50;;;;;;;20.41;78.64;99407.58;1832928;77;21080;-79
2022/09/30 08:55:25;;;;;;;24.92;22.17;;;;;;;20.91;76.87;99400.67;1812432;78;21051;-78
2022/09/30 08:57:53;;;;;;;23.85;20.77;;;;;;;21.32;75.22;99400.78;1815107;77;21046;-80
2022/09/30 09:00:20;;;;;;;22.90;20.57;;;;;;;21.67;73.63;99403.77;1829077;77;21029;-79
2022/09/30 09:02:53;;;;;;;24.63;21.93;;;;;;;21.93;71.12;99400.86;1829540;77;21120;-77
2022/09/30 09:05:43;;;;;;;23.67;21.37;;;;;;;21.80;71.34;99403.38;1836773;77;21056;-78
2022/09/30 09:08:31;;;;;;;25.68;20.50;;;;;;;21.75;71.45;99403.84;1838634;77;21009;-82
2022/09/30 09:11:05;;;;;;;21.60;19.55;;;;;;;21.80;71.67;99401.22;1822017;77;21033;-79
2022/09/30 09:14:00;;;;;;;23.62;21.12;;;;;;;22.00;70.93;99408.80;1811873;77;21010;-79
2022/09/30 09:16:44;;;;;;;24.20;21.57;;;;;;;22.13;70.25;99414.34;1824515;77;21960;-77
2022/09/30 09:19:14;;;;;;;26.45;23.15;;;;;;;22.16;69.71;99417.91;1800643;78;21494;-77
2022/09/30 09:21:52;;;;;;;24.10;21.52;;;;;;;22.31;68.93;99414.58;1799895;78;21056;-76
2022/09/30 09:24:22;;;;;;;25.90;22.13;;;;;;;22.57;69.28;99412.98;1804089;78;21480;-77
2022/09/30 09:26:49;;;;;;;36.70;27.93;;;;;;;23.10;68.51;99414.05;1836653;77;21025;-76
2022/09/30 09:29:44;;;;;;;35.30;28.83;;;;;;;23.79;65.95;99408.84;1805459;77;21617;-77
2022/09/30 09:32:18;;;;;;;37.13;26.60;;;;;;;24.23;64.36;99412.55;1835101;76;21210;-76
2022/09/30 09:34:59;;;;;;;38.75;27.62;;;;;;;24.65;62.19;99416.50;1816693;77;21014;-77
2022/09/30 09:41:10;;;;;;;33.35;22.90;;;;;;;24.85;61.72;99421.13;1844233;77;21021;-76
2022/09/30 09:44:13;;;;;;;20.60;18.42;;;;;;;25.17;61.03;99421.43;1801512;77;21156;-76
2022/09/30 09:47:05;;;;;;;28.42;21.45;;;;;;;25.66;59.75;99419.48;1837905;76;21010;-78
2022/09/30 09:49:35;;;;;;;31.40;23.42;;;;;;;26.14;58.66;99414.20;1834242;77;21017;-76
2022/09/30 09:52:33;;;;;;;31.33;22.93;;;;;;;26.46;58.16;99415.94;1822890;76;21020;-76
2022/09/30 09:55:00;;;;;;;25.23;19.70;;;;;;;27.00;57.49;99413.41;1826442;77;21513;-78
2022/09/30 09:57:31;;;;;;;27.62;21.90;;;;;;;27.71;55.89;99411.94;1832179;77;21713;-75
2022/09/30 10:02:34;;;;;;;26.82;19.87;;;;;;;28.52;53.53;99411.27;1777913;77;21049;-74
2022/09/30 10:05:03;;;;;;;25.15;18.80;;;;;;;28.68;53.16;99411.29;1829211;77;21033;-74
2022/09/30 10:07:32;;;;;;;21.48;18.52;;;;;;;28.83;52.44;99409.69;1829214;76;20986;-78
2022/09/30 10:10:17;;;;;;;30.37;22.10;;;;;;;28.88;52.42;99410.72;1829406;76;21171;-79
2022/09/30 10:12:46;;;;;;;26.68;22.20;;;;;;;28.93;52.11;99405.98;1825144;76;21451;-75
2022/09/30 10:15:22;;;;;;;33.33;23.55;;;;;;;28.96;52.30;99405.95;1818694;76;21032;-77
2022/09/30 10:17:56;;;;;;;33.38;23.35;;;;;;;29.10;52.16;99410.91;1821010;77;21036;-75
2022/09/30 10:20:32;;;;;;;32.40;23.35;;;;;;;29.21;51.69;99412.95;1824702;76;21079;-79
2022/09/30 10:23:17;;;;;;;31.73;24.27;;;;;;;29.19;51.27;99406.97;1834137;77;21090;-75
2022/09/30 10:26:07;;;;;;;30.43;23.60;;;;;;;29.17;51.28;99404.53;1824511;77;21002;-75
2022/09/30 10:28:53;;;;;;;28.70;22.67;;;;;;;29.47;51.03;99410.55;1823587;76;21041;-76
2022/09/30 10:31:35;;;;;;;27.40;21.35;;;;;;;30.02;49.91;99408.45;1829150;76;20978;-79
2022/09/30 10:34:27;;;;;;;27.58;21.48;;;;;;;30.53;49.30;99407.91;1806049;77;21033;-78
2022/09/30 10:36:55;;;;;;;26.85;20.85;;;;;;;31.18;48.28;99408.56;1801306;77;21704;-76
2022/09/30 10:39:30;;;;;;;25.80;19.48;;;;;;;31.50;47.23;99420.64;1801539;77;21013;-78
2022/09/30 10:42:24;;;;;;;27.05;19.98;;;;;;;31.56;46.32;99422.69;1819336;77;21037;-78
2022/09/30 10:45:08;;;;;;;31.10;18.52;;;;;;;31.08;46.52;99417.33;1826470;77;21077;-78
2022/09/30 10:47:33;;;;;;;28.50;19.42;;;;;;;30.46;47.81;99416.57;1817012;77;21029;-77
2022/09/30 10:50:06;;;;;;;20.88;18.00;;;;;;;30.31;48.37;99407.29;1818782;77;21157;-75
2022/09/30 10:52:43;;;;;;;18.25;16.05;;;;;;;30.14;48.98;99416.94;1824786;77;21485;-73
2022/09/30 10:55:32;;;;;;;23.05;17.02;;;;;;;29.96;49.49;99417.86;1814900;77;21009;-73
2022/09/30 10:58:27;;;;;;;18.23;16.42;;;;;;;29.71;49.94;99419.14;1811577;77;21033;-77
2022/09/30 11:01:02;;;;;;;19.92;17.77;;;;;;;29.29;50.29;99423.77;1814014;77;21053;-75
2022/09/30 11:03:37;;;;;;;18.85;17.05;;;;;;;28.85;51.04;99420.33;1832053;77;21548;-77
2022/09/30 11:06:06;;;;;;;19.60;16.32;;;;;;;28.33;51.91;99419.42;1833148;77;21017;-76
2022/09/30 11:08:53;;;;;;;19.17;17.37;;;;;;;27.78;52.94;99423.34;1810849;77;21006;-77
2022/09/30 11:11:26;;;;;;;23.55;17.90;;;;;;;27.29;53.93;99425.72;1762741;79;21076;-76
2022/09/30 11:14:17;;;;;;;18.70;16.70;;;;;;;26.83;54.81;99425.53;1801241;77;21068;-77
2022/09/30 11:17:09;;;;;;;19.17;16.85;;;;;;;26.54;55.65;99432.23;1818892;76;21538;-78
2022/09/30 11:20:15;;;;;;;20.52;17.07;;;;;;;26.41;56.36;99435.02;1837052;77;21517;-77
2022/09/30 11:22:53;;;;;;;21.30;17.15;;;;;;;26.36;56.80;99435.03;1811042;77;21512;-79
2022/09/30 11:25:27;;;;;;;19.62;17.75;;;;;;;26.28;57.10;99433.70;1824692;77;21026;-77
2022/09/30 11:28:28;;;;;;;20.50;18.45;;;;;;;26.21;57.28;99435.94;1830221;77;21029;-78
2022/09/30 11:31:06;;;;;;;20.05;16.97;;;;;;;25.99;57.68;99445.80;1814370;77;21533;-79
2022/09/30 11:33:44;;;;;;;22.13;18.15;;;;;;;25.70;58.40;99457.27;1828551;77;21490;-78
2022/09/30 11:36:45;;;;;;;19.85;17.80;;;;;;;25.47;59.02;99454.59;1836982;77;21117;-79
2022/09/30 11:39:34;;;;;;;20.40;18.42;;;;;;;25.15;59.51;99461.66;1827323;77;22049;-78
2022/09/30 11:42:27;;;;;;;20.25;18.45;;;;;;;24.83;60.14;99461.34;1824144;77;21048;-78
2022/09/30 11:45:16;;;;;;;21.20;18.87;;;;;;;24.51;60.74;99462.88;1831709;77;21760;-76
2022/09/30 11:47:58;;;;;;;20.27;17.52;;;;;;;24.22;61.56;99466.55;1819221;77;21026;-78
2022/09/30 11:50:45;;;;;;;22.07;19.98;;;;;;;23.93;62.45;99464.23;1820056;77;21553;-77
2022/09/30 11:53:23;;;;;;;27.55;19.82;;;;;;;23.73;63.13;99466.27;1820542;77;21021;-79
2022/09/30 11:56:13;;;;;;;24.30;20.57;;;;;;;23.61;63.76;99477.30;1808011;77;21033;-79
2022/09/30 12:02:54;;;;;;;20.95;18.67;;;;;;;23.56;64.27;99474.55;1817303;77;21643;-78
2022/09/30 12:05:43;;;;;;;22.02;19.92;;;;;;;23.80;64.20;99470.95;1844185;77;21056;-79